Terminal Aerodrome Forecast
Issued by NWS Bismarck, ND

Home | Current Version | Previous Version | Text Only | Print | Product List | Glossary Off
Versions: 1 2 3 4 5 6 7 8 9 10 11 12 13 14 15 16 17

000
FTUS43 KBIS 180500
TAFBIS
TAF
KBIS 180539Z 1806/1906 12011KT P6SM SCT100 BKN130 BKN180
     FM181200 12017G23KT P6SM BKN110 BKN200
     FM181500 13021G27KT P6SM BKN120 BKN200
     FM181800 14025G33KT P6SM SCT130 BKN200
     FM190000 12015KT P6SM VCSH SCT060 BKN100=

USA.gov is the U.S. government's official web portal to all federal, state and local government web resources and services.